Time;durP1;ratioP1;P1;durP2;ratioP2;P2;SDS_P1;SDS_P2;PMS_P1;PMS_P2;Temp;Humidity;BMP_temperature;BMP_pressure;BME280_temperature;BME280_humidity;BME280_pressure;Samples;Min_cycle;Max_cycle;Signal;HPM_P1;HPM_P2
2022/10/02 00:02:47;;;;;;;1.75;0.52;;;;;;;;;;4890848;29;20046;-89
2022/10/02 00:05:25;;;;;;;0.20;0.10;;;;;;;;;;4893939;29;20425;-89
2022/10/02 00:08:16;;;;;;;0.20;0.10;;;;;;;;;;4889383;29;20047;-89
2022/10/02 00:10:53;;;;;;;0.20;0.10;;;;;;;;;;4896649;28;20039;-87
2022/10/02 00:13:37;;;;;;;0.20;0.10;;;;;;;;;;4950758;28;20130;-91
2022/10/02 00:16:11;;;;;;;0.20;0.10;;;;;;;;;;4949451;28;20114;-90
2022/10/02 00:18:48;;;;;;;0.20;0.10;;;;;;;;;;4930641;28;20038;-90
2022/10/02 00:24:41;;;;;;;0.20;0.10;;;;;;;;;;4946628;28;20061;-89
2022/10/02 00:27:26;;;;;;;0.20;0.10;;;;;;;;;;4931382;28;20047;-90
2022/10/02 00:30:00;;;;;;;0.20;0.10;;;;;;;;;;4929451;28;20126;-87
2022/10/02 00:32:32;;;;;;;0.20;0.10;;;;;;;;;;4932006;28;20081;-87
2022/10/02 00:35:17;;;;;;;0.20;0.10;;;;;;;;;;4945672;28;20050;-89
2022/10/02 00:41:31;;;;;;;0.20;0.10;;;;;;;;;;4955109;28;20106;-87
2022/10/02 00:44:31;;;;;;;0.20;0.10;;;;;;;;;;4937952;28;20046;-91
2022/10/02 00:47:35;;;;;;;0.20;0.10;;;;;;;;;;4934686;28;20053;-90
2022/10/02 00:50:21;;;;;;;0.20;0.10;;;;;;;;;;4946243;28;20418;-90
2022/10/02 00:53:11;;;;;;;0.20;0.10;;;;;;;;;;4948473;28;20062;-88
2022/10/02 00:56:07;;;;;;;0.20;0.10;;;;;;;;;;4947147;28;20059;-89
2022/10/02 00:59:08;;;;;;;0.20;0.10;;;;;;;;;;4925908;29;20474;-90
2022/10/02 01:02:22;;;;;;;0.20;0.10;;;;;;;;;;4858466;29;20743;-91
2022/10/02 01:05:13;;;;;;;0.20;0.10;;;;;;;;;;4853521;29;20041;-91
2022/10/02 01:07:44;;;;;;;0.20;0.10;;;;;;;;;;4859677;29;20108;-90
2022/10/02 01:10:32;;;;;;;0.20;0.00;;;;;;;;;;4866266;29;20060;-90
2022/10/02 01:13:17;;;;;;;0.20;0.10;;;;;;;;;;4872884;29;20049;-90
2022/10/02 01:16:02;;;;;;;0.20;0.10;;;;;;;;;;4841856;29;20048;-90
2022/10/02 01:18:50;;;;;;;0.20;0.10;;;;;;;;;;4862385;29;20612;-90
2022/10/02 01:21:52;;;;;;;0.20;0.10;;;;;;;;;;4843948;29;20068;-92
2022/10/02 01:37:22;;;;;;;0.20;0.10;;;;;;;;;;5004887;28;20271;-93
2022/10/02 01:43:06;;;;;;;0.20;0.10;;;;;;;;;;4988945;23;20511;-87
2022/10/02 01:45:38;;;;;;;0.20;0.10;;;;;;;;;;4964839;28;20042;-87
2022/10/02 01:48:11;;;;;;;0.20;0.10;;;;;;;;;;4982215;28;20049;-89
2022/10/02 01:51:04;;;;;;;0.20;0.10;;;;;;;;;;4983080;28;20034;-87
2022/10/02 01:53:54;;;;;;;0.20;0.10;;;;;;;;;;4970274;28;20133;-85
2022/10/02 01:56:39;;;;;;;0.20;0.10;;;;;;;;;;4949865;28;20042;-87
2022/10/02 01:59:05;;;;;;;0.20;0.10;;;;;;;;;;4984485;28;22250;-86
2022/10/02 02:01:31;;;;;;;0.20;0.10;;;;;;;;;;4981505;28;20479;-87
2022/10/02 02:04:13;;;;;;;0.20;0.10;;;;;;;;;;4982020;28;20511;-85
2022/10/02 02:06:48;;;;;;;0.20;0.10;;;;;;;;;;4966105;28;20042;-85
2022/10/02 02:09:26;;;;;;;0.20;0.10;;;;;;;;;;4965320;28;20058;-86
2022/10/02 02:12:07;;;;;;;0.20;0.10;;;;;;;;;;4981640;28;20069;-84
2022/10/02 02:14:35;;;;;;;0.20;0.10;;;;;;;;;;4983147;28;20046;-85
2022/10/02 02:17:22;;;;;;;0.20;0.15;;;;;;;;;;4981606;28;20049;-86
2022/10/02 02:19:50;;;;;;;0.20;0.10;;;;;;;;;;4970403;28;20068;-85
2022/10/02 02:22:23;;;;;;;0.20;0.10;;;;;;;;;;4975632;28;20404;-85
2022/10/02 02:24:52;;;;;;;0.20;0.10;;;;;;;;;;4988929;28;20045;-85
2022/10/02 02:27:21;;;;;;;0.20;0.10;;;;;;;;;;4989682;28;20077;-85
2022/10/02 02:29:49;;;;;;;0.20;0.10;;;;;;;;;;4990038;28;20037;-86
2022/10/02 02:32:18;;;;;;;0.20;0.10;;;;;;;;;;4987816;28;20489;-85
2022/10/02 02:34:46;;;;;;;0.35;0.25;;;;;;;;;;4990509;28;20049;-83
2022/10/02 02:37:17;;;;;;;0.20;0.10;;;;;;;;;;4989869;28;20037;-87
2022/10/02 02:39:47;;;;;;;0.20;0.10;;;;;;;;;;4981127;28;20065;-86
2022/10/02 02:42:15;;;;;;;0.20;0.10;;;;;;;;;;4981938;28;20073;-84
2022/10/02 02:44:44;;;;;;;0.20;0.10;;;;;;;;;;4980302;28;20041;-86
2022/10/02 02:47:13;;;;;;;0.20;0.10;;;;;;;;;;4980567;28;20038;-87
2022/10/02 02:49:44;;;;;;;0.20;0.10;;;;;;;;;;4980144;28;20139;-86
2022/10/02 02:52:17;;;;;;;0.20;0.10;;;;;;;;;;4980559;28;20267;-86
2022/10/02 02:54:47;;;;;;;0.20;0.10;;;;;;;;;;4979649;28;20392;-86
2022/10/02 02:57:15;;;;;;;0.20;0.10;;;;;;;;;;4980146;28;20053;-87
2022/10/02 02:59:42;;;;;;;0.20;0.10;;;;;;;;;;4982253;28;20288;-86
2022/10/02 03:02:08;;;;;;;0.20;0.10;;;;;;;;;;4981637;28;20590;-85
2022/10/02 03:04:34;;;;;;;0.20;0.10;;;;;;;;;;4969284;28;20068;-84
2022/10/02 03:07:02;;;;;;;0.20;0.10;;;;;;;;;;4954702;28;20056;-86
2022/10/02 03:09:31;;;;;;;0.20;0.10;;;;;;;;;;4966483;28;20045;-86
2022/10/02 03:12:16;;;;;;;0.20;0.10;;;;;;;;;;4985836;28;20045;-83
2022/10/02 03:15:01;;;;;;;0.20;0.10;;;;;;;;;;4980163;28;20104;-86
2022/10/02 03:17:30;;;;;;;0.20;0.10;;;;;;;;;;4981893;28;20037;-84
2022/10/02 03:20:04;;;;;;;0.20;0.10;;;;;;;;;;4962369;28;20517;-85
2022/10/02 03:22:34;;;;;;;0.20;0.10;;;;;;;;;;4965203;28;20042;-83
2022/10/02 03:25:10;;;;;;;0.20;0.10;;;;;;;;;;4980998;28;20037;-84
2022/10/02 03:27:40;;;;;;;0.20;0.10;;;;;;;;;;4965995;28;20404;-86
2022/10/02 03:30:10;;;;;;;0.20;0.10;;;;;;;;;;4962876;28;20476;-85
2022/10/02 03:32:37;;;;;;;0.20;0.10;;;;;;;;;;4979976;28;20046;-84
2022/10/02 03:35:05;;;;;;;0.20;0.10;;;;;;;;;;4982059;28;20095;-85
2022/10/02 03:37:31;;;;;;;0.20;0.00;;;;;;;;;;4980731;28;20415;-85
2022/10/02 03:40:01;;;;;;;0.20;0.10;;;;;;;;;;4965387;28;20056;-85
2022/10/02 03:42:31;;;;;;;0.20;0.10;;;;;;;;;;4983506;28;20034;-86
2022/10/02 03:44:59;;;;;;;0.20;0.10;;;;;;;;;;4980929;28;20038;-87
2022/10/02 03:47:26;;;;;;;0.20;0.10;;;;;;;;;;4967023;28;20049;-88
2022/10/02 03:49:52;;;;;;;0.20;0.10;;;;;;;;;;4951749;28;20562;-84
2022/10/02 03:52:23;;;;;;;0.20;0.10;;;;;;;;;;4980399;28;20157;-85
2022/10/02 03:54:51;;;;;;;0.20;0.10;;;;;;;;;;4980309;28;20436;-85
2022/10/02 03:57:20;;;;;;;0.20;0.10;;;;;;;;;;4963157;28;20049;-84
2022/10/02 03:59:55;;;;;;;0.20;0.10;;;;;;;;;;4965773;28;20078;-86
2022/10/02 04:02:29;;;;;;;0.20;0.10;;;;;;;;;;4975142;28;20504;-88
2022/10/02 04:05:21;;;;;;;0.20;0.10;;;;;;;;;;4981948;28;20030;-86
2022/10/02 04:07:50;;;;;;;0.20;0.10;;;;;;;;;;4959002;28;20103;-87
2022/10/02 04:10:21;;;;;;;0.20;0.10;;;;;;;;;;4962712;28;20041;-85
2022/10/02 04:12:49;;;;;;;0.20;0.10;;;;;;;;;;4995488;28;20156;-85
2022/10/02 04:15:18;;;;;;;0.20;0.10;;;;;;;;;;4980946;28;20042;-85
2022/10/02 04:17:49;;;;;;;0.20;0.10;;;;;;;;;;4965298;28;20071;-85
2022/10/02 04:20:45;;;;;;;0.20;0.10;;;;;;;;;;4979906;28;20112;-87
2022/10/02 04:23:15;;;;;;;0.20;0.10;;;;;;;;;;4960737;28;20058;-86
2022/10/02 04:25:44;;;;;;;0.20;0.10;;;;;;;;;;4980369;28;20045;-84
2022/10/02 04:28:13;;;;;;;0.20;0.10;;;;;;;;;;4996477;28;20041;-86
2022/10/02 04:30:39;;;;;;;1.55;0.45;;;;;;;;;;4961520;28;20117;-86
2022/10/02 04:33:17;;;;;;;0.20;0.10;;;;;;;;;;4963370;28;20499;-84
2022/10/02 04:36:00;;;;;;;0.20;0.10;;;;;;;;;;4978812;28;20048;-84
2022/10/02 04:38:26;;;;;;;;;;;;;;;;;;4983073;28;20046;-85
2022/10/02 04:41:01;;;;;;;0.20;0.10;;;;;;;;;;4981927;28;20316;-84
2022/10/02 04:43:27;;;;;;;0.20;0.10;;;;;;;;;;4983716;28;20225;-82
2022/10/02 04:45:57;;;;;;;0.20;0.10;;;;;;;;;;4967711;28;20049;-86
2022/10/02 04:48:47;;;;;;;0.20;0.10;;;;;;;;;;4982494;28;20116;-83
2022/10/02 04:51:19;;;;;;;0.20;0.10;;;;;;;;;;4999432;28;20049;-86
2022/10/02 04:53:54;;;;;;;0.20;0.10;;;;;;;;;;4984112;28;20481;-85
2022/10/02 04:56:23;;;;;;;0.28;0.15;;;;;;;;;;4982095;28;20041;-85
2022/10/02 04:58:49;;;;;;;0.20;0.10;;;;;;;;;;4998159;28;20590;-85
2022/10/02 05:01:25;;;;;;;0.20;0.10;;;;;;;;;;4982880;28;20649;-86
2022/10/02 05:04:05;;;;;;;0.20;0.10;;;;;;;;;;4984434;28;20053;-86
2022/10/02 05:06:50;;;;;;;0.20;0.10;;;;;;;;;;4983172;28;20125;-85
2022/10/02 05:09:26;;;;;;;0.20;0.10;;;;;;;;;;4964648;28;20557;-85
2022/10/02 05:12:10;;;;;;;0.20;0.10;;;;;;;;;;4984943;28;20052;-84
2022/10/02 05:14:36;;;;;;;0.20;0.10;;;;;;;;;;5007608;28;20042;-85
2022/10/02 05:17:21;;;;;;;0.20;0.10;;;;;;;;;;4981805;28;20046;-85
2022/10/02 05:19:58;;;;;;;0.20;0.10;;;;;;;;;;4982505;28;20413;-86
2022/10/02 05:22:30;;;;;;;0.47;0.47;;;;;;;;;;5000560;28;20049;-85
2022/10/02 05:25:07;;;;;;;0.20;0.10;;;;;;;;;;4970351;28;20254;-86
2022/10/02 05:27:36;;;;;;;0.20;0.10;;;;;;;;;;4984759;28;20089;-85
2022/10/02 05:30:13;;;;;;;0.20;0.10;;;;;;;;;;4972173;28;20045;-84
2022/10/02 05:32:45;;;;;;;0.20;0.10;;;;;;;;;;4968401;28;20095;-88
2022/10/02 05:35:30;;;;;;;0.20;0.10;;;;;;;;;;4987726;28;20046;-85
2022/10/02 05:37:56;;;;;;;0.20;0.10;;;;;;;;;;4970828;28;20026;-85
2022/10/02 05:40:24;;;;;;;0.32;0.32;;;;;;;;;;4988126;28;20049;-86
2022/10/02 05:42:59;;;;;;;0.20;0.10;;;;;;;;;;4985127;28;20067;-84
2022/10/02 05:45:25;;;;;;;0.20;0.20;;;;;;;;;;4983279;28;20038;-86
2022/10/02 05:47:53;;;;;;;0.20;0.10;;;;;;;;;;5000604;28;20050;-87
2022/10/02 05:50:29;;;;;;;0.20;0.00;;;;;;;;;;4985532;28;20077;-84
2022/10/02 05:53:05;;;;;;;0.20;0.10;;;;;;;;;;4976905;28;20056;-86
2022/10/02 05:55:39;;;;;;;0.20;0.10;;;;;;;;;;4977553;28;20168;-87
2022/10/02 05:58:23;;;;;;;0.20;0.10;;;;;;;;;;4979069;28;20030;-84
2022/10/02 06:01:05;;;;;;;0.20;0.10;;;;;;;;;;4963615;28;20034;-86
2022/10/02 06:03:42;;;;;;;0.20;0.10;;;;;;;;;;4985885;28;20269;-85
2022/10/02 06:06:20;;;;;;;0.20;0.10;;;;;;;;;;4968579;28;20038;-85
2022/10/02 06:08:53;;;;;;;0.20;0.10;;;;;;;;;;4971609;28;20037;-87
2022/10/02 06:11:25;;;;;;;0.20;0.10;;;;;;;;;;5003487;28;20034;-84
2022/10/02 06:13:58;;;;;;;0.20;0.10;;;;;;;;;;4984797;28;20038;-85
2022/10/02 06:16:27;;;;;;;0.20;0.10;;;;;;;;;;4985322;28;20041;-85
2022/10/02 06:19:02;;;;;;;0.20;0.10;;;;;;;;;;4987133;28;20026;-85
2022/10/02 06:21:35;;;;;;;0.20;0.10;;;;;;;;;;4968608;28;20045;-86
2022/10/02 06:24:10;;;;;;;0.20;0.10;;;;;;;;;;4985262;28;20435;-87
2022/10/02 06:26:39;;;;;;;0.20;0.10;;;;;;;;;;4984938;28;20038;-85
2022/10/02 06:29:10;;;;;;;0.20;0.10;;;;;;;;;;4986156;28;20105;-84
2022/10/02 06:31:46;;;;;;;0.20;0.10;;;;;;;;;;4970806;28;20036;-86
2022/10/02 06:34:12;;;;;;;0.20;0.10;;;;;;;;;;4967087;28;20070;-86
2022/10/02 06:36:57;;;;;;;0.20;0.10;;;;;;;;;;4983969;28;20508;-85
2022/10/02 06:39:23;;;;;;;0.20;0.10;;;;;;;;;;4985676;28;20049;-86
2022/10/02 06:41:49;;;;;;;0.20;0.10;;;;;;;;;;4984910;28;20049;-86
2022/10/02 06:44:22;;;;;;;0.20;0.10;;;;;;;;;;4985077;28;20408;-85
2022/10/02 06:46:51;;;;;;;0.30;0.30;;;;;;;;;;4985217;28;20516;-85
2022/10/02 06:49:17;;;;;;;0.20;0.10;;;;;;;;;;4986502;28;20087;-85
2022/10/02 06:51:51;;;;;;;0.20;0.10;;;;;;;;;;4986764;28;20357;-86
2022/10/02 06:54:36;;;;;;;0.20;0.10;;;;;;;;;;4971788;28;20129;-85
2022/10/02 06:57:08;;;;;;;0.77;0.25;;;;;;;;;;4969600;28;20058;-86
2022/10/02 06:59:54;;;;;;;0.20;0.10;;;;;;;;;;5005950;28;20048;-87
2022/10/02 07:02:39;;;;;;;0.20;0.10;;;;;;;;;;4985951;28;20672;-85
2022/10/02 07:05:14;;;;;;;0.20;0.10;;;;;;;;;;4985224;28;20057;-87
2022/10/02 07:08:00;;;;;;;0.20;0.10;;;;;;;;;;4982655;28;20041;-86
2022/10/02 07:10:34;;;;;;;0.20;0.10;;;;;;;;;;4960701;28;20186;-85
2022/10/02 07:13:03;;;;;;;0.20;0.10;;;;;;;;;;4979447;28;20046;-84
2022/10/02 07:15:47;;;;;;;0.20;0.10;;;;;;;;;;4980720;28;20328;-85
2022/10/02 07:18:38;;;;;;;0.20;0.10;;;;;;;;;;5002772;28;20034;-85
2022/10/02 07:21:13;;;;;;;0.20;0.10;;;;;;;;;;4977816;28;20049;-85
2022/10/02 07:23:42;;;;;;;0.20;0.10;;;;;;;;;;4998400;28;20061;-86
2022/10/02 07:26:17;;;;;;;0.20;0.10;;;;;;;;;;4965542;28;20446;-87
2022/10/02 07:29:02;;;;;;;0.20;0.10;;;;;;;;;;4986331;28;20141;-88
2022/10/02 07:31:31;;;;;;;0.20;0.10;;;;;;;;;;4987022;28;20053;-83
2022/10/02 07:34:20;;;;;;;0.20;0.10;;;;;;;;;;4971519;28;20046;-84
2022/10/02 07:36:49;;;;;;;0.20;0.10;;;;;;;;;;4971009;28;20095;-86
2022/10/02 07:39:15;;;;;;;0.20;0.10;;;;;;;;;;4983068;28;20038;-87
2022/10/02 07:44:28;;;;;;;0.20;0.10;;;;;;;;;;5002522;28;20034;-87
2022/10/02 07:47:22;;;;;;;0.20;0.10;;;;;;;;;;4968578;28;20053;-89
2022/10/02 07:53:37;;;;;;;0.20;0.10;;;;;;;;;;5058460;22;20735;-87
2022/10/02 07:56:18;;;;;;;0.20;0.10;;;;;;;;;;4933215;28;20055;-85
2022/10/02 07:59:02;;;;;;;;;;;;;;;;;;4927937;28;20087;-89
2022/10/02 08:01:36;;;;;;;0.20;0.10;;;;;;;;;;4927181;28;19949;-88
2022/10/02 08:04:18;;;;;;;0.20;0.10;;;;;;;;;;4933240;28;20045;-90
2022/10/02 08:07:16;;;;;;;0.20;0.10;;;;;;;;;;4941763;28;20053;-91
2022/10/02 08:09:50;;;;;;;0.20;0.10;;;;;;;;;;4935466;28;20039;-88
2022/10/02 08:12:57;;;;;;;0.20;0.10;;;;;;;;;;4942868;28;20039;-91
2022/10/02 08:15:28;;;;;;;0.20;0.10;;;;;;;;;;4868398;29;20598;-86
2022/10/02 08:17:58;;;;;;;0.20;0.10;;;;;;;;;;4946281;28;20528;-86
2022/10/02 08:20:51;;;;;;;0.20;0.10;;;;;;;;;;4943917;28;20101;-88
2022/10/02 08:23:52;;;;;;;0.20;0.10;;;;;;;;;;4939652;28;20430;-88
2022/10/02 08:26:22;;;;;;;0.20;0.10;;;;;;;;;;4912253;29;20087;-87
2022/10/02 08:29:15;;;;;;;0.20;0.10;;;;;;;;;;4969575;28;20048;-87
2022/10/02 08:32:19;;;;;;;0.20;0.10;;;;;;;;;;4959551;28;20047;-88
2022/10/02 08:35:15;;;;;;;0.20;0.10;;;;;;;;;;4967457;28;20686;-89
2022/10/02 08:41:10;;;;;;;0.20;0.10;;;;;;;;;;4974901;28;20049;-89
2022/10/02 08:43:54;;;;;;;0.20;0.10;;;;;;;;;;4987311;28;20124;-86
2022/10/02 08:46:36;;;;;;;0.20;0.10;;;;;;;;;;4974877;28;20047;-86
2022/10/02 08:49:21;;;;;;;0.20;0.10;;;;;;;;;;4973347;28;20102;-87
2022/10/02 08:52:12;;;;;;;0.20;0.10;;;;;;;;;;4964770;28;20051;-88
2022/10/02 08:54:57;;;;;;;0.20;0.10;;;;;;;;;;4957471;28;20038;-90
2022/10/02 08:57:48;;;;;;;0.55;0.50;;;;;;;;;;4961602;28;20073;-91
2022/10/02 09:00:24;;;;;;;0.20;0.10;;;;;;;;;;4953718;28;20245;-90
2022/10/02 09:06:18;;;;;;;0.20;0.10;;;;;;;;;;4976391;28;20050;-89
2022/10/02 09:09:47;;;;;;;;;;;;;;;;;;;;;
2022/10/02 09:12:46;;;;;;;0.20;0.10;;;;;;;;;;4982549;28;20046;-87
2022/10/02 09:15:12;;;;;;;0.20;0.10;;;;;;;;;;4973365;28;20408;-85
2022/10/02 09:17:44;;;;;;;0.20;0.10;;;;;;;;;;4971106;28;20042;-88
2022/10/02 09:20:44;;;;;;;0.20;0.10;;;;;;;;;;4976341;28;20072;-90
2022/10/02 09:23:36;;;;;;;0.20;0.10;;;;;;;;;;4955218;28;20042;-88
2022/10/02 09:26:22;;;;;;;0.20;0.10;;;;;;;;;;4991569;28;20038;-91
2022/10/02 09:29:34;;;;;;;0.20;0.10;;;;;;;;;;4952631;28;20043;-91
2022/10/02 09:36:02;;;;;;;0.20;0.10;;;;;;;;;;4966104;28;20050;-90
2022/10/02 09:38:47;;;;;;;0.20;0.10;;;;;;;;;;4978789;28;20042;-89
2022/10/02 09:44:35;;;;;;;0.20;0.10;;;;;;;;;;4987183;28;20053;-91
2022/10/02 09:47:28;;;;;;;0.20;0.10;;;;;;;;;;4955963;28;20109;-92
2022/10/02 09:50:30;;;;;;;;;;;;;;;;;;;;;
2022/10/02 09:53:34;;;;;;;0.20;0.10;;;;;;;;;;4977144;28;20046;-88
2022/10/02 09:56:37;;;;;;;0.20;0.10;;;;;;;;;;4950345;28;20038;-88
2022/10/02 09:59:03;;;;;;;0.20;0.10;;;;;;;;;;4976160;28;20238;-91
2022/10/02 10:04:30;;;;;;;0.20;0.10;;;;;;;;;;5039830;22;20063;-89
2022/10/02 10:07:25;;;;;;;;;;;;;;;;;;;;;
2022/10/02 10:10:13;;;;;;;0.20;0.10;;;;;;;;;;4984188;28;20091;-89
2022/10/02 10:13:06;;;;;;;0.20;0.10;;;;;;;;;;4963084;28;20050;-91
2022/10/02 10:15:35;;;;;;;;;;;;;;;;;;4999904;23;20478;-84
2022/10/02 10:18:22;;;;;;;0.20;0.10;;;;;;;;;;4970576;28;20317;-85
2022/10/02 10:21:13;;;;;;;0.20;0.10;;;;;;;;;;4967717;28;20068;-86
2022/10/02 10:23:59;;;;;;;0.20;0.10;;;;;;;;;;4956871;28;20134;-88
2022/10/02 10:26:54;;;;;;;0.20;0.10;;;;;;;;;;4954123;28;20049;-84
2022/10/02 10:29:30;;;;;;;0.20;0.10;;;;;;;;;;4894922;28;20074;-84
2022/10/02 10:32:09;;;;;;;0.20;0.10;;;;;;;;;;4970449;28;20042;-86
2022/10/02 10:34:38;;;;;;;0.20;0.10;;;;;;;;;;4947385;28;20051;-84
2022/10/02 10:40:37;;;;;;;0.20;0.10;;;;;;;;;;4895455;28;20047;-84
2022/10/02 10:43:13;;;;;;;0.20;0.10;;;;;;;;;;4906147;29;20122;-87
2022/10/02 10:45:42;;;;;;;0.20;0.10;;;;;;;;;;4912543;29;20052;-86
2022/10/02 10:48:22;;;;;;;0.20;0.10;;;;;;;;;;4924908;29;20036;-84
2022/10/02 10:50:54;;;;;;;0.20;0.10;;;;;;;;;;4914473;29;20051;-83
2022/10/02 10:53:23;;;;;;;0.20;0.10;;;;;;;;;;4913166;29;20064;-85
2022/10/02 10:55:49;;;;;;;0.20;0.10;;;;;;;;;;4918997;29;20044;-84
2022/10/02 10:58:20;;;;;;;0.20;0.00;;;;;;;;;;4920329;29;20558;-88
2022/10/02 11:00:52;;;;;;;0.20;0.10;;;;;;;;;;4916761;29;20056;-82
2022/10/02 11:03:34;;;;;;;0.20;0.10;;;;;;;;;;4887827;29;20384;-86
2022/10/02 11:06:11;;;;;;;0.20;0.10;;;;;;;;;;4904379;29;20168;-83
2022/10/02 11:08:49;;;;;;;0.20;0.10;;;;;;;;;;4879748;29;20122;-85
2022/10/02 11:11:15;;;;;;;0.20;0.10;;;;;;;;;;4902704;29;20579;-82
2022/10/02 11:14:01;;;;;;;0.20;0.10;;;;;;;;;;4918357;29;20553;-86
2022/10/02 11:16:47;;;;;;;0.20;0.10;;;;;;;;;;4907852;29;20044;-84
2022/10/02 11:19:25;;;;;;;0.20;0.00;;;;;;;;;;4886960;29;20036;-83
2022/10/02 11:21:58;;;;;;;0.20;0.10;;;;;;;;;;4892081;29;20514;-86
2022/10/02 11:24:34;;;;;;;0.20;0.00;;;;;;;;;;4884915;29;20047;-85
2022/10/02 11:27:00;;;;;;;0.20;0.10;;;;;;;;;;4887520;29;20051;-81
2022/10/02 11:29:32;;;;;;;0.20;0.10;;;;;;;;;;4887250;29;20047;-85
2022/10/02 11:31:58;;;;;;;0.20;0.10;;;;;;;;;;4919874;29;20051;-82
2022/10/02 11:34:38;;;;;;;0.20;0.10;;;;;;;;;;4922268;29;20048;-85
2022/10/02 11:37:23;;;;;;;0.20;0.10;;;;;;;;;;4921419;29;20052;-82
2022/10/02 11:39:55;;;;;;;0.20;0.10;;;;;;;;;;4923939;29;20087;-83
2022/10/02 11:42:21;;;;;;;0.20;0.10;;;;;;;;;;4895827;29;20045;-85
2022/10/02 11:44:56;;;;;;;0.20;0.10;;;;;;;;;;4887669;29;20709;-84
2022/10/02 11:47:35;;;;;;;0.20;0.10;;;;;;;;;;4914841;29;20374;-84
2022/10/02 11:50:28;;;;;;;0.20;0.10;;;;;;;;;;4885150;29;20059;-85
2022/10/02 11:53:03;;;;;;;0.20;0.10;;;;;;;;;;4896092;29;20040;-84
2022/10/02 11:55:29;;;;;;;0.20;0.10;;;;;;;;;;4885835;29;20074;-84
2022/10/02 11:57:55;;;;;;;0.20;0.10;;;;;;;;;;4919609;29;20043;-84
2022/10/02 12:00:38;;;;;;;0.20;0.10;;;;;;;;;;4904584;29;20076;-85
2022/10/02 12:03:14;;;;;;;0.20;0.00;;;;;;;;;;4925170;28;20040;-85
2022/10/02 12:05:59;;;;;;;0.20;0.10;;;;;;;;;;4908631;29;20032;-86
2022/10/02 12:08:41;;;;;;;0.20;0.08;;;;;;;;;;4924145;29;20419;-84
2022/10/02 12:11:34;;;;;;;0.20;0.10;;;;;;;;;;4920684;29;20059;-86
2022/10/02 12:14:18;;;;;;;0.20;0.10;;;;;;;;;;4894664;29;20078;-84
2022/10/02 12:16:50;;;;;;;0.20;0.10;;;;;;;;;;4921453;29;20067;-86
2022/10/02 12:19:35;;;;;;;0.20;0.10;;;;;;;;;;4890273;29;20082;-85
2022/10/02 12:27:50;;;;;;;0.20;0.10;;;;;;;;;;4924107;29;20375;-84
2022/10/02 12:30:19;;;;;;;0.20;0.10;;;;;;;;;;4892112;29;20048;-83
2022/10/02 12:33:20;;;;;;;0.20;0.10;;;;;;;;;;4893798;29;20064;-85
2022/10/02 12:35:54;;;;;;;0.20;0.10;;;;;;;;;;4871854;29;20075;-86
2022/10/02 12:38:37;;;;;;;0.20;0.10;;;;;;;;;;4880814;29;20040;-85
2022/10/02 12:41:07;;;;;;;0.20;0.10;;;;;;;;;;4887023;29;20084;-87
2022/10/02 12:43:39;;;;;;;0.20;0.10;;;;;;;;;;4901622;29;20044;-86
2022/10/02 12:46:20;;;;;;;0.20;0.10;;;;;;;;;;4900666;29;20036;-85
2022/10/02 12:48:49;;;;;;;0.20;0.10;;;;;;;;;;4921429;29;20503;-85
2022/10/02 12:51:18;;;;;;;0.20;0.10;;;;;;;;;;4891832;29;20051;-88
2022/10/02 12:53:59;;;;;;;0.20;0.10;;;;;;;;;;4921263;29;20051;-84
2022/10/02 12:56:44;;;;;;;0.20;0.10;;;;;;;;;;4902803;29;20511;-85
2022/10/02 12:59:29;;;;;;;0.20;0.10;;;;;;;;;;4878775;29;20040;-84
2022/10/02 13:02:03;;;;;;;0.20;0.10;;;;;;;;;;4890546;29;20070;-83
2022/10/02 13:04:48;;;;;;;0.20;0.10;;;;;;;;;;4920805;29;20046;-85
2022/10/02 13:07:15;;;;;;;0.20;0.10;;;;;;;;;;4906724;29;20111;-84
2022/10/02 13:10:00;;;;;;;0.20;0.10;;;;;;;;;;4923213;29;20043;-83
2022/10/02 13:12:42;;;;;;;0.20;0.10;;;;;;;;;;4919056;29;20047;-83
2022/10/02 13:15:28;;;;;;;0.20;0.10;;;;;;;;;;4917417;29;20115;-82
2022/10/02 13:17:57;;;;;;;0.20;0.10;;;;;;;;;;4921959;28;23126;-85
2022/10/02 13:20:37;;;;;;;0.20;0.10;;;;;;;;;;4890009;29;20044;-88
2022/10/02 13:23:03;;;;;;;0.20;0.10;;;;;;;;;;4902001;29;20048;-84
2022/10/02 13:25:43;;;;;;;0.20;0.10;;;;;;;;;;4909648;29;20149;-87
2022/10/02 13:28:16;;;;;;;0.20;0.10;;;;;;;;;;4921715;29;20476;-84
2022/10/02 13:31:11;;;;;;;0.20;0.10;;;;;;;;;;4922649;29;20182;-88
2022/10/02 13:33:52;;;;;;;0.20;0.10;;;;;;;;;;4863912;29;20055;-84
2022/10/02 13:36:37;;;;;;;0.20;0.10;;;;;;;;;;4889188;29;20044;-85
2022/10/02 13:39:22;;;;;;;0.20;0.10;;;;;;;;;;4900495;29;20039;-84
2022/10/02 13:42:03;;;;;;;0.20;0.10;;;;;;;;;;4916776;29;20400;-86
2022/10/02 13:44:47;;;;;;;0.20;0.10;;;;;;;;;;4887056;29;20511;-86
2022/10/02 13:47:21;;;;;;;0.20;0.10;;;;;;;;;;4921362;29;20062;-87
2022/10/02 13:50:05;;;;;;;0.20;0.10;;;;;;;;;;4885752;29;20212;-85
2022/10/02 13:52:45;;;;;;;0.20;0.10;;;;;;;;;;4920113;29;20051;-84
2022/10/02 13:55:14;;;;;;;0.20;0.10;;;;;;;;;;4883789;29;20100;-83
2022/10/02 13:57:59;;;;;;;0.20;0.10;;;;;;;;;;4922281;28;20028;-84
2022/10/02 14:00:37;;;;;;;0.20;0.10;;;;;;;;;;4925924;29;20051;-85
2022/10/02 14:03:08;;;;;;;0.20;0.10;;;;;;;;;;4902381;29;20040;-83
2022/10/02 14:05:43;;;;;;;0.20;0.10;;;;;;;;;;4885114;29;20090;-86
2022/10/02 14:08:21;;;;;;;0.20;0.10;;;;;;;;;;4895862;29;20099;-85
2022/10/02 14:10:53;;;;;;;0.20;0.10;;;;;;;;;;4917340;29;20382;-85
2022/10/02 14:13:22;;;;;;;0.20;0.10;;;;;;;;;;4910967;28;20039;-89
2022/10/02 14:15:49;;;;;;;0.20;0.10;;;;;;;;;;4875539;29;20052;-83
2022/10/02 14:18:34;;;;;;;0.20;0.10;;;;;;;;;;4907717;29;22330;-86
2022/10/02 14:21:11;;;;;;;0.20;0.10;;;;;;;;;;4893070;29;22014;-85
2022/10/02 14:23:56;;;;;;;0.20;0.10;;;;;;;;;;4896826;29;20426;-89
2022/10/02 14:26:30;;;;;;;0.20;0.10;;;;;;;;;;4887526;29;20036;-87
2022/10/02 14:29:16;;;;;;;0.20;0.10;;;;;;;;;;4890149;29;20067;-86
2022/10/02 14:31:52;;;;;;;0.20;0.10;;;;;;;;;;4875541;29;20048;-85
2022/10/02 14:34:42;;;;;;;0.20;0.10;;;;;;;;;;4923199;29;20627;-84
2022/10/02 14:37:27;;;;;;;0.20;0.10;;;;;;;;;;4901259;29;20060;-86
2022/10/02 14:39:55;;;;;;;0.20;0.10;;;;;;;;;;4916638;29;20083;-87
2022/10/02 14:42:38;;;;;;;0.20;0.10;;;;;;;;;;4918895;29;20046;-82
2022/10/02 14:45:04;;;;;;;0.20;0.10;;;;;;;;;;4909981;29;20055;-86
2022/10/02 14:47:41;;;;;;;0.20;0.00;;;;;;;;;;4927217;29;20078;-86
2022/10/02 14:50:26;;;;;;;0.20;0.10;;;;;;;;;;4909370;29;21273;-86
2022/10/02 14:52:58;;;;;;;0.20;0.10;;;;;;;;;;4893634;29;20047;-85
2022/10/02 14:55:29;;;;;;;0.20;0.10;;;;;;;;;;4923157;29;20076;-86
2022/10/02 14:58:01;;;;;;;0.20;0.10;;;;;;;;;;4918527;29;20047;-85
2022/10/02 15:00:38;;;;;;;0.20;0.10;;;;;;;;;;4923704;29;20384;-88
2022/10/02 15:03:04;;;;;;;0.20;0.10;;;;;;;;;;4916153;29;20047;-85
2022/10/02 15:05:37;;;;;;;0.20;0.10;;;;;;;;;;4924805;29;20562;-84
2022/10/02 15:08:10;;;;;;;0.20;0.10;;;;;;;;;;4925482;29;20064;-87
2022/10/02 15:10:38;;;;;;;0.20;0.10;;;;;;;;;;4926477;29;20047;-83
2022/10/02 15:13:07;;;;;;;0.20;0.10;;;;;;;;;;4890114;29;20172;-85
2022/10/02 15:15:33;;;;;;;0.20;0.10;;;;;;;;;;4895470;29;20044;-86
2022/10/02 15:18:18;;;;;;;0.20;0.10;;;;;;;;;;4923728;29;20462;-87
2022/10/02 15:21:03;;;;;;;0.20;0.10;;;;;;;;;;4923933;29;20043;-87
2022/10/02 15:23:33;;;;;;;0.20;0.10;;;;;;;;;;4888728;29;20038;-84
2022/10/02 15:26:18;;;;;;;0.20;0.10;;;;;;;;;;4891604;29;20035;-85
2022/10/02 15:29:03;;;;;;;0.20;0.10;;;;;;;;;;4923008;29;20050;-88
2022/10/02 15:31:39;;;;;;;0.20;0.10;;;;;;;;;;4923196;29;20455;-87
2022/10/02 15:34:24;;;;;;;0.20;0.10;;;;;;;;;;4897013;29;20410;-85
2022/10/02 15:37:06;;;;;;;0.20;0.10;;;;;;;;;;4924087;29;20047;-86
2022/10/02 15:39:47;;;;;;;0.20;0.10;;;;;;;;;;4910217;29;20048;-88
2022/10/02 15:42:17;;;;;;;0.20;0.10;;;;;;;;;;4892713;29;20139;-84
2022/10/02 15:45:01;;;;;;;0.20;0.10;;;;;;;;;;4883433;29;20048;-86
2022/10/02 15:47:37;;;;;;;0.20;0.10;;;;;;;;;;4917067;29;20056;-88
2022/10/02 15:50:23;;;;;;;0.20;0.10;;;;;;;;;;4920434;29;20047;-85
2022/10/02 15:53:16;;;;;;;0.20;0.10;;;;;;;;;;4886069;29;20044;-89
2022/10/02 15:55:51;;;;;;;0.20;0.10;;;;;;;;;;4900204;29;20060;-85
2022/10/02 15:58:17;;;;;;;0.20;0.10;;;;;;;;;;4904071;29;20047;-85
2022/10/02 16:01:02;;;;;;;0.20;0.10;;;;;;;;;;4922675;29;20508;-85
2022/10/02 16:03:43;;;;;;;0.20;0.10;;;;;;;;;;4921286;29;20082;-85
2022/10/02 16:06:28;;;;;;;0.20;0.08;;;;;;;;;;4912699;29;20484;-86
2022/10/02 16:09:06;;;;;;;0.20;0.10;;;;;;;;;;4881293;29;20052;-86
2022/10/02 16:11:45;;;;;;;0.20;0.10;;;;;;;;;;4916736;29;20160;-86
2022/10/02 16:14:13;;;;;;;0.20;0.10;;;;;;;;;;4915661;29;20081;-85
2022/10/02 16:16:51;;;;;;;0.20;0.10;;;;;;;;;;4997077;23;20191;-91
2022/10/02 16:19:32;;;;;;;0.20;0.10;;;;;;;;;;4934411;28;20385;-89
2022/10/02 16:22:17;;;;;;;0.20;0.10;;;;;;;;;;4944706;28;20047;-90
2022/10/02 16:25:19;;;;;;;0.20;0.10;;;;;;;;;;4943287;28;20040;-92
2022/10/02 16:28:12;;;;;;;0.20;0.10;;;;;;;;;;4929745;29;20051;-90
2022/10/02 16:31:00;;;;;;;0.20;0.10;;;;;;;;;;4928432;29;20047;-89
2022/10/02 16:33:32;;;;;;;0.20;0.10;;;;;;;;;;4945666;28;20962;-90
2022/10/02 16:36:18;;;;;;;0.20;0.10;;;;;;;;;;4961357;28;20059;-88
2022/10/02 16:39:30;;;;;;;0.20;0.10;;;;;;;;;;4934552;29;20486;-90
2022/10/02 16:42:32;;;;;;;0.20;0.10;;;;;;;;;;4867103;29;20087;-93
2022/10/02 16:45:04;;;;;;;0.20;0.00;;;;;;;;;;4896656;29;20124;-89
2022/10/02 16:47:33;;;;;;;;;;;;;;;;;;4862666;29;20416;-92
2022/10/02 16:53:30;;;;;;;0.20;0.10;;;;;;;;;;4876401;29;20050;-90